sensor_id;sensor_type;location;lat;lon;timestamp;temperature;humidity
39277;DHT22;63149;48.086;-1.606;2022-09-11T05:02:17;14.70;99.90
39277;DHT22;63149;48.086;-1.606;2022-09-11T05:04:44;14.60;99.90
39277;DHT22;63149;48.086;-1.606;2022-09-11T05:07:11;14.70;99.90
39277;DHT22;63149;48.086;-1.606;2022-09-11T05:09:39;14.60;99.90
39277;DHT22;63149;48.086;-1.606;2022-09-11T05:12:06;14.70;99.90
39277;DHT22;63149;48.086;-1.606;2022-09-11T05:14:33;14.70;99.90
39277;DHT22;63149;48.086;-1.606;2022-09-11T05:17:00;14.70;99.90
39277;DHT22;63149;48.086;-1.606;2022-09-11T05:19:28;14.70;99.90
39277;DHT22;63149;48.086;-1.606;2022-09-11T05:21:55;14.70;99.90
39277;DHT22;63149;48.086;-1.606;2022-09-11T05:24:22;14.70;99.90
39277;DHT22;63149;48.086;-1.606;2022-09-11T05:26:49;14.70;99.90
39277;DHT22;63149;48.086;-1.606;2022-09-11T05:29:16;14.70;99.90
39277;DHT22;63149;48.086;-1.606;2022-09-11T05:31:44;14.70;99.90
39277;DHT22;63149;48.086;-1.606;2022-09-11T05:34:12;14.70;99.90
39277;DHT22;63149;48.086;-1.606;2022-09-11T05:36:40;14.80;99.90
39277;DHT22;63149;48.086;-1.606;2022-09-11T05:39:07;14.70;99.90
39277;DHT22;63149;48.086;-1.606;2022-09-11T05:41:35;14.70;99.90
39277;DHT22;63149;48.086;-1.606;2022-09-11T05:44:02;14.70;99.90
39277;DHT22;63149;48.086;-1.606;2022-09-11T05:46:29;14.70;99.90
39277;DHT22;63149;48.086;-1.606;2022-09-11T05:48:56;14.80;99.90
39277;DHT22;63149;48.086;-1.606;2022-09-11T05:51:23;14.80;99.90
39277;DHT22;63149;48.086;-1.606;2022-09-11T05:53:53;14.80;99.90
39277;DHT22;63149;48.086;-1.606;2022-09-11T05:56:23;14.80;99.90
39277;DHT22;63149;48.086;-1.606;2022-09-11T05:58:50;14.80;99.90
39277;DHT22;63149;48.086;-1.606;2022-09-11T06:01:18;14.80;99.90
39277;DHT22;63149;48.086;-1.606;2022-09-11T06:03:46;14.80;99.90
39277;DHT22;63149;48.086;-1.606;2022-09-11T06:06:15;14.80;99.90
39277;DHT22;63149;48.086;-1.606;2022-09-11T06:08:42;14.80;99.90
39277;DHT22;63149;48.086;-1.606;2022-09-11T06:11:12;14.90;99.90
39277;DHT22;63149;48.086;-1.606;2022-09-11T06:13:41;14.90;99.90
39277;DHT22;63149;48.086;-1.606;2022-09-11T06:16:08;15.00;99.90
39277;DHT22;63149;48.086;-1.606;2022-09-11T06:18:36;15.00;99.90
39277;DHT22;63149;48.086;-1.606;2022-09-11T06:21:04;15.10;99.90
39277;DHT22;63149;48.086;-1.606;2022-09-11T06:23:32;15.10;99.90
39277;DHT22;63149;48.086;-1.606;2022-09-11T06:26:03;15.20;99.90
39277;DHT22;63149;48.086;-1.606;2022-09-11T06:28:32;15.20;99.90
39277;DHT22;63149;48.086;-1.606;2022-09-11T06:31:00;15.20;99.90
39277;DHT22;63149;48.086;-1.606;2022-09-11T06:33:30;15.30;99.90
39277;DHT22;63149;48.086;-1.606;2022-09-11T06:35:58;15.30;99.90
39277;DHT22;63149;48.086;-1.606;2022-09-11T06:38:26;15.30;99.90
39277;DHT22;63149;48.086;-1.606;2022-09-11T06:40:53;15.40;99.90
39277;DHT22;63149;48.086;-1.606;2022-09-11T06:43:21;15.40;99.90
39277;DHT22;63149;48.086;-1.606;2022-09-11T06:45:50;15.40;99.90
39277;DHT22;63149;48.086;-1.606;2022-09-11T06:48:17;15.40;99.90
39277;DHT22;63149;48.086;-1.606;2022-09-11T06:50:44;15.50;99.90
39277;DHT22;63149;48.086;-1.606;2022-09-11T06:53:12;15.50;99.90
39277;DHT22;63149;48.086;-1.606;2022-09-11T06:55:39;15.50;99.90
39277;DHT22;63149;48.086;-1.606;2022-09-11T06:58:07;15.50;99.90
39277;DHT22;63149;48.086;-1.606;2022-09-11T07:00:34;15.60;99.90
39277;DHT22;63149;48.086;-1.606;2022-09-11T07:03:03;15.50;99.90
39277;DHT22;63149;48.086;-1.606;2022-09-11T07:05:30;15.50;99.90
39277;DHT22;63149;48.086;-1.606;2022-09-11T07:07:58;15.60;99.90
39277;DHT22;63149;48.086;-1.606;2022-09-11T07:10:25;15.60;99.90
39277;DHT22;63149;48.086;-1.606;2022-09-11T07:12:53;15.60;99.90
39277;DHT22;63149;48.086;-1.606;2022-09-11T07:15:20;15.70;99.90
39277;DHT22;63149;48.086;-1.606;2022-09-11T07:17:47;15.70;99.90
39277;DHT22;63149;48.086;-1.606;2022-09-11T07:20:16;15.80;99.90
39277;DHT22;63149;48.086;-1.606;2022-09-11T07:22:43;15.90;99.90
39277;DHT22;63149;48.086;-1.606;2022-09-11T07:25:11;15.90;99.90
39277;DHT22;63149;48.086;-1.606;2022-09-11T07:27:38;16.00;99.90
39277;DHT22;63149;48.086;-1.606;2022-09-11T07:30:06;16.10;99.90
39277;DHT22;63149;48.086;-1.606;2022-09-11T07:32:33;16.20;99.90
39277;DHT22;63149;48.086;-1.606;2022-09-11T07:35:02;16.30;99.90
39277;DHT22;63149;48.086;-1.606;2022-09-11T07:37:30;16.40;99.90
39277;DHT22;63149;48.086;-1.606;2022-09-11T07:39:57;16.60;99.90
39277;DHT22;63149;48.086;-1.606;2022-09-11T07:42:24;16.70;99.90
39277;DHT22;63149;48.086;-1.606;2022-09-11T07:44:51;16.80;99.90
39277;DHT22;63149;48.086;-1.606;2022-09-11T07:47:18;16.90;99.90
39277;DHT22;63149;48.086;-1.606;2022-09-11T07:49:45;17.00;99.90
39277;DHT22;63149;48.086;-1.606;2022-09-11T07:52:12;17.10;99.90
39277;DHT22;63149;48.086;-1.606;2022-09-11T07:54:41;17.10;99.90
39277;DHT22;63149;48.086;-1.606;2022-09-11T07:57:08;17.20;99.90
39277;DHT22;63149;48.086;-1.606;2022-09-11T07:59:36;17.30;99.90
39277;DHT22;63149;48.086;-1.606;2022-09-11T08:02:04;17.30;99.90
39277;DHT22;63149;48.086;-1.606;2022-09-11T08:04:32;17.40;99.90
39277;DHT22;63149;48.086;-1.606;2022-09-11T08:06:59;17.40;99.90
39277;DHT22;63149;48.086;-1.606;2022-09-11T08:09:27;17.50;99.90
39277;DHT22;63149;48.086;-1.606;2022-09-11T08:11:55;17.60;99.90
39277;DHT22;63149;48.086;-1.606;2022-09-11T08:14:23;17.60;99.90
39277;DHT22;63149;48.086;-1.606;2022-09-11T08:16:50;17.70;99.90
39277;DHT22;63149;48.086;-1.606;2022-09-11T08:19:20;17.80;99.90
39277;DHT22;63149;48.086;-1.606;2022-09-11T08:21:47;18.00;99.90
39277;DHT22;63149;48.086;-1.606;2022-09-11T08:24:15;18.10;99.90
39277;DHT22;63149;48.086;-1.606;2022-09-11T08:26:43;18.30;99.90
39277;DHT22;63149;48.086;-1.606;2022-09-11T08:29:11;18.40;99.90
39277;DHT22;63149;48.086;-1.606;2022-09-11T08:31:38;18.60;99.90
39277;DHT22;63149;48.086;-1.606;2022-09-11T08:34:05;18.80;99.90
39277;DHT22;63149;48.086;-1.606;2022-09-11T08:36:32;19.10;99.90
39277;DHT22;63149;48.086;-1.606;2022-09-11T08:38:59;19.20;99.90
39277;DHT22;63149;48.086;-1.606;2022-09-11T08:41:35;19.40;99.90
39277;DHT22;63149;48.086;-1.606;2022-09-11T08:44:13;19.70;99.90
39277;DHT22;63149;48.086;-1.606;2022-09-11T08:46:45;20.00;99.90
39277;DHT22;63149;48.086;-1.606;2022-09-11T08:49:18;20.40;99.90
39277;DHT22;63149;48.086;-1.606;2022-09-11T08:51:47;20.90;99.90
39277;DHT22;63149;48.086;-1.606;2022-09-11T08:54:24;21.20;99.90
39277;DHT22;63149;48.086;-1.606;2022-09-11T08:56:54;21.60;99.90
39277;DHT22;63149;48.086;-1.606;2022-09-11T08:59:27;22.10;99.90
39277;DHT22;63149;48.086;-1.606;2022-09-11T09:02:09;22.40;99.90
39277;DHT22;63149;48.086;-1.606;2022-09-11T09:04:58;22.90;99.90
39277;DHT22;63149;48.086;-1.606;2022-09-11T09:07:40;23.40;99.90
39277;DHT22;63149;48.086;-1.606;2022-09-11T09:10:15;23.40;99.90
39277;DHT22;63149;48.086;-1.606;2022-09-11T09:12:50;23.50;99.90
39277;DHT22;63149;48.086;-1.606;2022-09-11T09:15:24;23.70;99.90
39277;DHT22;63149;48.086;-1.606;2022-09-11T09:18:00;23.60;99.90
39277;DHT22;63149;48.086;-1.606;2022-09-11T09:20:28;23.90;99.90
39277;DHT22;63149;48.086;-1.606;2022-09-11T09:22:59;24.10;99.90
39277;DHT22;63149;48.086;-1.606;2022-09-11T09:25:28;24.30;99.90
39277;DHT22;63149;48.086;-1.606;2022-09-11T09:28:05;24.50;99.90
39277;DHT22;63149;48.086;-1.606;2022-09-11T09:30:39;25.10;99.90
39277;DHT22;63149;48.086;-1.606;2022-09-11T09:33:23;25.60;99.90
39277;DHT22;63149;48.086;-1.606;2022-09-11T09:35:52;25.90;99.90
39277;DHT22;63149;48.086;-1.606;2022-09-11T09:38:21;26.10;99.90
39277;DHT22;63149;48.086;-1.606;2022-09-11T09:40:58;26.10;99.90
39277;DHT22;63149;48.086;-1.606;2022-09-11T09:43:41;26.30;99.90
39277;DHT22;63149;48.086;-1.606;2022-09-11T09:46:19;26.90;99.90
39277;DHT22;63149;48.086;-1.606;2022-09-11T09:48:49;26.20;99.90
39277;DHT22;63149;48.086;-1.606;2022-09-11T09:51:16;26.30;99.90
39277;DHT22;63149;48.086;-1.606;2022-09-11T09:53:46;27.00;99.90
39277;DHT22;63149;48.086;-1.606;2022-09-11T09:56:16;27.60;99.90
39277;DHT22;63149;48.086;-1.606;2022-09-11T09:59:05;27.90;99.90
39277;DHT22;63149;48.086;-1.606;2022-09-11T10:01:45;28.20;99.90
39277;DHT22;63149;48.086;-1.606;2022-09-11T10:04:18;28.60;99.90
39277;DHT22;63149;48.086;-1.606;2022-09-11T10:06:48;28.90;99.90
39277;DHT22;63149;48.086;-1.606;2022-09-11T10:09:21;29.10;99.90
39277;DHT22;63149;48.086;-1.606;2022-09-11T10:11:53;29.50;99.90
39277;DHT22;63149;48.086;-1.606;2022-09-11T10:14:22;29.70;99.90
39277;DHT22;63149;48.086;-1.606;2022-09-11T10:16:51;30.20;99.90
39277;DHT22;63149;48.086;-1.606;2022-09-11T10:19:43;30.50;99.90
39277;DHT22;63149;48.086;-1.606;2022-09-11T10:22:22;31.40;99.90
39277;DHT22;63149;48.086;-1.606;2022-09-11T10:25:02;31.80;99.90
39277;DHT22;63149;48.086;-1.606;2022-09-11T10:27:33;31.90;99.90
39277;DHT22;63149;48.086;-1.606;2022-09-11T10:30:01;32.10;99.90
39277;DHT22;63149;48.086;-1.606;2022-09-11T10:32:30;31.90;99.90
39277;DHT22;63149;48.086;-1.606;2022-09-11T10:34:58;32.20;99.90
39277;DHT22;63149;48.086;-1.606;2022-09-11T10:37:27;32.50;99.90
39277;DHT22;63149;48.086;-1.606;2022-09-11T10:40:01;32.70;99.90
39277;DHT22;63149;48.086;-1.606;2022-09-11T10:42:31;32.80;99.90
39277;DHT22;63149;48.086;-1.606;2022-09-11T10:45:06;32.70;99.90
39277;DHT22;63149;48.086;-1.606;2022-09-11T10:47:36;33.10;99.90
39277;DHT22;63149;48.086;-1.606;2022-09-11T10:50:21;33.10;99.90
39277;DHT22;63149;48.086;-1.606;2022-09-11T10:53:11;33.70;99.90
39277;DHT22;63149;48.086;-1.606;2022-09-11T10:55:43;34.30;99.90
39277;DHT22;63149;48.086;-1.606;2022-09-11T10:58:16;34.20;99.90
39277;DHT22;63149;48.086;-1.606;2022-09-11T11:00:44;34.70;99.90
39277;DHT22;63149;48.086;-1.606;2022-09-11T11:03:16;35.40;99.90
39277;DHT22;63149;48.086;-1.606;2022-09-11T11:05:52;35.20;99.90
39277;DHT22;63149;48.086;-1.606;2022-09-11T11:08:32;35.60;99.10
39277;DHT22;63149;48.086;-1.606;2022-09-11T11:11:15;35.40;96.80
39277;DHT22;63149;48.086;-1.606;2022-09-11T11:14:00;35.10;96.90
39277;DHT22;63149;48.086;-1.606;2022-09-11T11:16:38;35.40;96.00
39277;DHT22;63149;48.086;-1.606;2022-09-11T11:19:31;35.40;95.70
39277;DHT22;63149;48.086;-1.606;2022-09-11T11:22:06;35.40;95.70
39277;DHT22;63149;48.086;-1.606;2022-09-11T11:24:44;35.40;93.60
39277;DHT22;63149;48.086;-1.606;2022-09-11T11:27:31;35.40;93.30
39277;DHT22;63149;48.086;-1.606;2022-09-11T11:30:09;35.40;93.40
39277;DHT22;63149;48.086;-1.606;2022-09-11T11:33:05;35.40;90.70
39277;DHT22;63149;48.086;-1.606;2022-09-11T11:35:43;34.90;93.20
39277;DHT22;63149;48.086;-1.606;2022-09-11T11:38:18;35.60;92.90
39277;DHT22;63149;48.086;-1.606;2022-09-11T11:40:48;36.10;91.10
39277;DHT22;63149;48.086;-1.606;2022-09-11T11:43:21;36.60;90.20
39277;DHT22;63149;48.086;-1.606;2022-09-11T11:45:53;36.90;87.50
39277;DHT22;63149;48.086;-1.606;2022-09-11T11:48:24;36.90;87.10
39277;DHT22;63149;48.086;-1.606;2022-09-11T11:50:56;37.90;87.90
39277;DHT22;63149;48.086;-1.606;2022-09-11T11:53:28;38.10;83.70
39277;DHT22;63149;48.086;-1.606;2022-09-11T11:56:01;38.20;82.60
39277;DHT22;63149;48.086;-1.606;2022-09-11T11:58:44;38.80;80.00
39277;DHT22;63149;48.086;-1.606;2022-09-11T12:01:19;39.10;80.20
39277;DHT22;63149;48.086;-1.606;2022-09-11T12:03:51;38.60;73.90
39277;DHT22;63149;48.086;-1.606;2022-09-11T12:06:22;38.30;76.40
39277;DHT22;63149;48.086;-1.606;2022-09-11T12:08:49;38.50;74.90
39277;DHT22;63149;48.086;-1.606;2022-09-11T12:11:25;39.30;74.60
39277;DHT22;63149;48.086;-1.606;2022-09-11T12:13:53;38.70;67.90
39277;DHT22;63149;48.086;-1.606;2022-09-11T12:16:24;37.80;69.40
39277;DHT22;63149;48.086;-1.606;2022-09-11T12:19:12;37.10;70.20
39277;DHT22;63149;48.086;-1.606;2022-09-11T12:24:49;38.20;70.30
39277;DHT22;63149;48.086;-1.606;2022-09-11T12:27:53;38.80;69.30
39277;DHT22;63149;48.086;-1.606;2022-09-11T12:30:55;39.40;66.30
39277;DHT22;63149;48.086;-1.606;2022-09-11T12:33:51;38.30;64.80
39277;DHT22;63149;48.086;-1.606;2022-09-11T12:36:24;38.30;65.50
39277;DHT22;63149;48.086;-1.606;2022-09-11T12:39:00;39.40;64.00
39277;DHT22;63149;48.086;-1.606;2022-09-11T12:41:30;39.30;65.00
39277;DHT22;63149;48.086;-1.606;2022-09-11T12:43:58;40.30;65.70
39277;DHT22;63149;48.086;-1.606;2022-09-11T12:49:49;36.10;70.20
39277;DHT22;63149;48.086;-1.606;2022-09-11T12:52:45;33.80;77.30
39277;DHT22;63149;48.086;-1.606;2022-09-11T12:55:29;31.90;82.60
39277;DHT22;63149;48.086;-1.606;2022-09-11T12:58:00;31.20;90.50
39277;DHT22;63149;48.086;-1.606;2022-09-11T13:00:34;30.40;90.20
39277;DHT22;63149;48.086;-1.606;2022-09-11T13:03:02;29.70;92.60
39277;DHT22;63149;48.086;-1.606;2022-09-11T13:05:33;29.40;93.40
39277;DHT22;63149;48.086;-1.606;2022-09-11T13:08:05;29.00;94.10
39277;DHT22;63149;48.086;-1.606;2022-09-11T13:10:38;28.60;95.20
39277;DHT22;63149;48.086;-1.606;2022-09-11T13:13:05;28.30;96.50
39277;DHT22;63149;48.086;-1.606;2022-09-11T13:15:53;27.90;97.20
39277;DHT22;63149;48.086;-1.606;2022-09-11T13:18:33;27.60;97.80
39277;DHT22;63149;48.086;-1.606;2022-09-11T13:21:13;27.50;98.60
39277;DHT22;63149;48.086;-1.606;2022-09-11T13:23:42;27.10;99.80
39277;DHT22;63149;48.086;-1.606;2022-09-11T13:26:14;26.80;99.90
39277;DHT22;63149;48.086;-1.606;2022-09-11T13:28:46;26.50;99.90
39277;DHT22;63149;48.086;-1.606;2022-09-11T13:31:17;26.40;99.90
39277;DHT22;63149;48.086;-1.606;2022-09-11T13:33:49;26.30;99.90
39277;DHT22;63149;48.086;-1.606;2022-09-11T13:36:19;26.30;99.90
39277;DHT22;63149;48.086;-1.606;2022-09-11T13:38:48;26.20;99.90
39277;DHT22;63149;48.086;-1.606;2022-09-11T13:41:22;26.20;99.90
39277;DHT22;63149;48.086;-1.606;2022-09-11T13:43:52;26.10;99.90
39277;DHT22;63149;48.086;-1.606;2022-09-11T13:46:22;26.10;99.90
39277;DHT22;63149;48.086;-1.606;2022-09-11T13:48:51;26.00;99.90
39277;DHT22;63149;48.086;-1.606;2022-09-11T13:51:24;26.00;99.90
39277;DHT22;63149;48.086;-1.606;2022-09-11T13:53:57;25.90;99.90
39277;DHT22;63149;48.086;-1.606;2022-09-11T13:56:45;25.90;99.90
39277;DHT22;63149;48.086;-1.606;2022-09-11T13:59:36;25.90;99.90
39277;DHT22;63149;48.086;-1.606;2022-09-11T14:02:06;25.80;99.90
39277;DHT22;63149;48.086;-1.606;2022-09-11T14:04:42;25.80;99.90
39277;DHT22;63149;48.086;-1.606;2022-09-11T14:07:16;25.80;99.90
39277;DHT22;63149;48.086;-1.606;2022-09-11T14:09:49;25.80;99.90
39277;DHT22;63149;48.086;-1.606;2022-09-11T14:12:19;25.80;99.90
39277;DHT22;63149;48.086;-1.606;2022-09-11T14:14:50;25.80;99.90
39277;DHT22;63149;48.086;-1.606;2022-09-11T14:17:19;25.80;99.90
39277;DHT22;63149;48.086;-1.606;2022-09-11T14:19:47;25.70;99.90
39277;DHT22;63149;48.086;-1.606;2022-09-11T14:22:22;25.80;99.90
39277;DHT22;63149;48.086;-1.606;2022-09-11T14:25:00;25.80;99.90
39277;DHT22;63149;48.086;-1.606;2022-09-11T14:27:37;25.80;99.90
39277;DHT22;63149;48.086;-1.606;2022-09-11T14:30:28;25.80;99.90
39277;DHT22;63149;48.086;-1.606;2022-09-11T14:33:13;25.80;99.90
39277;DHT22;63149;48.086;-1.606;2022-09-11T14:35:41;25.80;99.90
39277;DHT22;63149;48.086;-1.606;2022-09-11T14:38:11;25.80;99.90
39277;DHT22;63149;48.086;-1.606;2022-09-11T14:40:45;25.80;99.90
39277;DHT22;63149;48.086;-1.606;2022-09-11T14:43:14;25.80;99.90
39277;DHT22;63149;48.086;-1.606;2022-09-11T14:45:45;25.70;99.90
39277;DHT22;63149;48.086;-1.606;2022-09-11T14:48:15;25.60;99.90
39277;DHT22;63149;48.086;-1.606;2022-09-11T14:50:42;25.60;99.90
39277;DHT22;63149;48.086;-1.606;2022-09-11T14:53:14;25.60;99.90
39277;DHT22;63149;48.086;-1.606;2022-09-11T14:55:43;25.60;99.90
39277;DHT22;63149;48.086;-1.606;2022-09-11T14:58:10;25.40;99.90
39277;DHT22;63149;48.086;-1.606;2022-09-11T15:00:38;25.40;99.90
39277;DHT22;63149;48.086;-1.606;2022-09-11T15:03:06;25.40;99.90
39277;DHT22;63149;48.086;-1.606;2022-09-11T15:05:33;25.40;99.90
39277;DHT22;63149;48.086;-1.606;2022-09-11T15:08:00;25.50;99.90
39277;DHT22;63149;48.086;-1.606;2022-09-11T15:10:28;25.50;99.90
39277;DHT22;63149;48.086;-1.606;2022-09-11T15:12:57;25.50;99.90
39277;DHT22;63149;48.086;-1.606;2022-09-11T15:15:24;25.50;99.90
39277;DHT22;63149;48.086;-1.606;2022-09-11T15:17:54;25.50;99.90
39277;DHT22;63149;48.086;-1.606;2022-09-11T15:20:21;25.50;99.90
39277;DHT22;63149;48.086;-1.606;2022-09-11T15:22:49;25.50;99.90
39277;DHT22;63149;48.086;-1.606;2022-09-11T15:25:16;25.50;99.90
39277;DHT22;63149;48.086;-1.606;2022-09-11T15:27:43;25.50;99.90
39277;DHT22;63149;48.086;-1.606;2022-09-11T15:30:10;25.50;99.90
39277;DHT22;63149;48.086;-1.606;2022-09-11T15:32:37;25.50;99.90
39277;DHT22;63149;48.086;-1.606;2022-09-11T15:35:06;25.50;99.90
39277;DHT22;63149;48.086;-1.606;2022-09-11T15:37:34;25.50;99.90
39277;DHT22;63149;48.086;-1.606;2022-09-11T15:40:01;25.50;99.90
39277;DHT22;63149;48.086;-1.606;2022-09-11T15:42:28;25.50;99.90
39277;DHT22;63149;48.086;-1.606;2022-09-11T15:44:55;25.50;99.90
39277;DHT22;63149;48.086;-1.606;2022-09-11T15:47:22;25.50;99.90
39277;DHT22;63149;48.086;-1.606;2022-09-11T15:49:49;25.50;99.90
39277;DHT22;63149;48.086;-1.606;2022-09-11T15:52:18;25.40;99.90
39277;DHT22;63149;48.086;-1.606;2022-09-11T15:54:45;25.40;99.90
39277;DHT22;63149;48.086;-1.606;2022-09-11T15:57:13;25.50;99.90
39277;DHT22;63149;48.086;-1.606;2022-09-11T15:59:41;25.50;99.90
39277;DHT22;63149;48.086;-1.606;2022-09-11T16:02:09;25.50;99.90
39277;DHT22;63149;48.086;-1.606;2022-09-11T16:04:37;25.50;99.90
39277;DHT22;63149;48.086;-1.606;2022-09-11T16:07:03;25.50;99.90
39277;DHT22;63149;48.086;-1.606;2022-09-11T16:09:32;25.40;99.90
39277;DHT22;63149;48.086;-1.606;2022-09-11T16:11:59;25.40;99.90
39277;DHT22;63149;48.086;-1.606;2022-09-11T16:14:28;25.30;99.90
39277;DHT22;63149;48.086;-1.606;2022-09-11T16:16:58;25.40;99.90
39277;DHT22;63149;48.086;-1.606;2022-09-11T16:19:27;25.40;99.90
39277;DHT22;63149;48.086;-1.606;2022-09-11T16:21:55;25.30;99.90
39277;DHT22;63149;48.086;-1.606;2022-09-11T16:24:24;25.30;99.90
39277;DHT22;63149;48.086;-1.606;2022-09-11T16:26:52;25.30;99.90
39277;DHT22;63149;48.086;-1.606;2022-09-11T16:29:21;25.30;99.90
39277;DHT22;63149;48.086;-1.606;2022-09-11T16:31:48;25.30;99.90
39277;DHT22;63149;48.086;-1.606;2022-09-11T16:34:16;25.30;99.90
39277;DHT22;63149;48.086;-1.606;2022-09-11T16:36:43;25.30;99.90
39277;DHT22;63149;48.086;-1.606;2022-09-11T16:39:13;25.30;99.90
39277;DHT22;63149;48.086;-1.606;2022-09-11T16:41:40;25.30;99.90
39277;DHT22;63149;48.086;-1.606;2022-09-11T16:44:12;25.30;99.90
39277;DHT22;63149;48.086;-1.606;2022-09-11T16:46:41;25.30;99.90
39277;DHT22;63149;48.086;-1.606;2022-09-11T16:49:08;25.20;99.90
39277;DHT22;63149;48.086;-1.606;2022-09-11T16:51:35;25.20;99.90
39277;DHT22;63149;48.086;-1.606;2022-09-11T16:54:02;25.20;99.90
39277;DHT22;63149;48.086;-1.606;2022-09-11T16:56:29;25.20;99.90
39277;DHT22;63149;48.086;-1.606;2022-09-11T16:58:56;25.10;99.90
39277;DHT22;63149;48.086;-1.606;2022-09-11T17:01:26;25.10;99.90
39277;DHT22;63149;48.086;-1.606;2022-09-11T17:03:55;25.10;99.90
39277;DHT22;63149;48.086;-1.606;2022-09-11T17:06:23;25.00;99.90
39277;DHT22;63149;48.086;-1.606;2022-09-11T17:08:52;25.00;99.90
39277;DHT22;63149;48.086;-1.606;2022-09-11T17:11:21;25.00;99.90
39277;DHT22;63149;48.086;-1.606;2022-09-11T17:13:48;25.00;99.90
39277;DHT22;63149;48.086;-1.606;2022-09-11T17:16:17;25.00;99.90
39277;DHT22;63149;48.086;-1.606;2022-09-11T17:18:46;24.90;99.90
39277;DHT22;63149;48.086;-1.606;2022-09-11T17:21:14;24.90;99.90
39277;DHT22;63149;48.086;-1.606;2022-09-11T17:23:42;24.90;99.90
39277;DHT22;63149;48.086;-1.606;2022-09-11T17:26:10;24.90;99.90
39277;DHT22;63149;48.086;-1.606;2022-09-11T17:28:38;24.80;99.90
39277;DHT22;63149;48.086;-1.606;2022-09-11T17:31:06;24.80;99.90
39277;DHT22;63149;48.086;-1.606;2022-09-11T17:33:34;24.70;99.90
39277;DHT22;63149;48.086;-1.606;2022-09-11T17:36:05;24.70;99.90
39277;DHT22;63149;48.086;-1.606;2022-09-11T17:38:32;24.70;99.90
39277;DHT22;63149;48.086;-1.606;2022-09-11T17:41:01;24.60;99.90
39277;DHT22;63149;48.086;-1.606;2022-09-11T17:43:29;24.60;99.90
39277;DHT22;63149;48.086;-1.606;2022-09-11T17:45:59;24.60;99.90
39277;DHT22;63149;48.086;-1.606;2022-09-11T17:48:26;24.50;99.90
39277;DHT22;63149;48.086;-1.606;2022-09-11T17:51:01;24.50;99.90
39277;DHT22;63149;48.086;-1.606;2022-09-11T17:53:32;24.40;99.90
39277;DHT22;63149;48.086;-1.606;2022-09-11T17:56:03;24.30;99.90
39277;DHT22;63149;48.086;-1.606;2022-09-11T17:58:31;24.30;99.90
39277;DHT22;63149;48.086;-1.606;2022-09-11T18:00:58;24.30;99.90
39277;DHT22;63149;48.086;-1.606;2022-09-11T18:03:37;24.20;99.90
39277;DHT22;63149;48.086;-1.606;2022-09-11T18:06:15;24.20;99.90
39277;DHT22;63149;48.086;-1.606;2022-09-11T18:08:44;24.10;99.90
39277;DHT22;63149;48.086;-1.606;2022-09-11T18:11:12;24.10;99.90
39277;DHT22;63149;48.086;-1.606;2022-09-11T18:13:39;24.10;99.90
39277;DHT22;63149;48.086;-1.606;2022-09-11T18:16:07;24.00;99.90
39277;DHT22;63149;48.086;-1.606;2022-09-11T18:18:34;23.90;99.90
39277;DHT22;63149;48.086;-1.606;2022-09-11T18:21:06;23.90;99.90
39277;DHT22;63149;48.086;-1.606;2022-09-11T18:23:37;23.80;99.90
39277;DHT22;63149;48.086;-1.606;2022-09-11T18:26:06;23.70;99.90
39277;DHT22;63149;48.086;-1.606;2022-09-11T18:28:34;23.60;99.90
39277;DHT22;63149;48.086;-1.606;2022-09-11T18:31:02;23.60;99.90
39277;DHT22;63149;48.086;-1.606;2022-09-11T18:33:29;23.50;99.90
39277;DHT22;63149;48.086;-1.606;2022-09-11T18:36:00;23.40;99.90
39277;DHT22;63149;48.086;-1.606;2022-09-11T18:38:27;23.40;99.90
39277;DHT22;63149;48.086;-1.606;2022-09-11T18:40:55;23.30;99.90
39277;DHT22;63149;48.086;-1.606;2022-09-11T18:43:25;23.20;99.90
39277;DHT22;63149;48.086;-1.606;2022-09-11T18:45:52;23.10;99.90
39277;DHT22;63149;48.086;-1.606;2022-09-11T18:48:19;23.10;99.90
39277;DHT22;63149;48.086;-1.606;2022-09-11T18:50:47;23.00;99.90
39277;DHT22;63149;48.086;-1.606;2022-09-11T18:53:14;22.80;99.90
39277;DHT22;63149;48.086;-1.606;2022-09-11T18:55:41;22.70;99.90
39277;DHT22;63149;48.086;-1.606;2022-09-11T18:58:08;22.70;99.90
39277;DHT22;63149;48.086;-1.606;2022-09-11T19:00:37;22.60;99.90
39277;DHT22;63149;48.086;-1.606;2022-09-11T19:03:05;22.50;99.90
39277;DHT22;63149;48.086;-1.606;2022-09-11T19:05:32;22.50;99.90
39277;DHT22;63149;48.086;-1.606;2022-09-11T19:07:59;22.40;99.90
39277;DHT22;63149;48.086;-1.606;2022-09-11T19:10:27;22.40;99.90
39277;DHT22;63149;48.086;-1.606;2022-09-11T19:12:54;22.30;99.90
39277;DHT22;63149;48.086;-1.606;2022-09-11T19:15:21;22.20;99.90
39277;DHT22;63149;48.086;-1.606;2022-09-11T19:17:51;22.20;99.90
39277;DHT22;63149;48.086;-1.606;2022-09-11T19:20:20;22.10;99.90
39277;DHT22;63149;48.086;-1.606;2022-09-11T19:22:47;22.00;99.90
39277;DHT22;63149;48.086;-1.606;2022-09-11T19:25:14;22.00;99.90
39277;DHT22;63149;48.086;-1.606;2022-09-11T19:27:41;21.80;99.90
39277;DHT22;63149;48.086;-1.606;2022-09-11T19:30:09;21.80;99.90
39277;DHT22;63149;48.086;-1.606;2022-09-11T19:32:36;21.70;99.90
39277;DHT22;63149;48.086;-1.606;2022-09-11T19:35:05;21.60;99.90
39277;DHT22;63149;48.086;-1.606;2022-09-11T19:37:32;21.50;99.90
39277;DHT22;63149;48.086;-1.606;2022-09-11T19:39:59;21.50;99.90
39277;DHT22;63149;48.086;-1.606;2022-09-11T19:42:26;21.40;99.90
39277;DHT22;63149;48.086;-1.606;2022-09-11T19:44:53;21.30;99.90
39277;DHT22;63149;48.086;-1.606;2022-09-11T19:47:20;21.20;99.90
39277;DHT22;63149;48.086;-1.606;2022-09-11T19:49:49;21.10;99.90
39277;DHT22;63149;48.086;-1.606;2022-09-11T19:52:17;21.00;99.90
39277;DHT22;63149;48.086;-1.606;2022-09-11T19:54:44;21.00;99.90
39277;DHT22;63149;48.086;-1.606;2022-09-11T19:57:11;20.90;99.90
39277;DHT22;63149;48.086;-1.606;2022-09-11T19:59:38;20.80;99.90
39277;DHT22;63149;48.086;-1.606;2022-09-11T20:02:05;20.70;99.90
39277;DHT22;63149;48.086;-1.606;2022-09-11T20:04:32;20.70;99.90
39277;DHT22;63149;48.086;-1.606;2022-09-11T20:06:59;20.70;99.90
39277;DHT22;63149;48.086;-1.606;2022-09-11T20:09:27;20.60;99.90
39277;DHT22;63149;48.086;-1.606;2022-09-11T20:11:54;20.50;99.90
39277;DHT22;63149;48.086;-1.606;2022-09-11T20:14:21;20.50;99.90
39277;DHT22;63149;48.086;-1.606;2022-09-11T20:16:48;20.50;99.90
39277;DHT22;63149;48.086;-1.606;2022-09-11T20:19:15;20.50;99.90
39277;DHT22;63149;48.086;-1.606;2022-09-11T20:21:42;20.50;99.90
39277;DHT22;63149;48.086;-1.606;2022-09-11T20:24:09;20.40;99.90
39277;DHT22;63149;48.086;-1.606;2022-09-11T20:26:37;20.30;99.90
39277;DHT22;63149;48.086;-1.606;2022-09-11T20:29:06;20.30;99.90
39277;DHT22;63149;48.086;-1.606;2022-09-11T20:31:36;20.20;99.90
39277;DHT22;63149;48.086;-1.606;2022-09-11T20:34:04;20.20;99.90
39277;DHT22;63149;48.086;-1.606;2022-09-11T20:36:31;20.10;99.90
39277;DHT22;63149;48.086;-1.606;2022-09-11T20:38:58;20.10;99.90
39277;DHT22;63149;48.086;-1.606;2022-09-11T20:41:26;20.00;99.90
39277;DHT22;63149;48.086;-1.606;2022-09-11T20:43:56;20.00;99.90